createdAt,value
2022-08-26T00:01:10.732Z,25.61
2022-08-26T00:03:37.358Z,25.64
2022-08-26T00:06:04.049Z,25.65
2022-08-26T00:08:30.646Z,25.64
2022-08-26T00:10:57.201Z,25.67
2022-08-26T00:13:26.465Z,25.60
2022-08-26T00:15:53.702Z,25.60
2022-08-26T00:18:22.660Z,25.64
2022-08-26T00:20:49.717Z,25.61
2022-08-26T00:23:17.839Z,25.60
2022-08-26T00:25:44.470Z,25.57
2022-08-26T00:28:11.201Z,25.57
2022-08-26T00:30:38.521Z,25.53
2022-08-26T00:33:06.277Z,25.59
2022-08-26T00:35:34.936Z,25.53
2022-08-26T00:38:02.773Z,25.56
2022-08-26T00:40:31.633Z,25.54
2022-08-26T00:42:59.327Z,25.57
2022-08-26T00:45:26.177Z,25.54
2022-08-26T00:48:01.227Z,25.53
2022-08-26T00:50:33.345Z,25.52
2022-08-26T00:53:02.268Z,25.51
2022-08-26T00:55:37.942Z,25.51
2022-08-26T00:58:05.786Z,25.48
2022-08-26T01:00:32.613Z,25.43
2022-08-26T01:03:00.946Z,25.46
2022-08-26T01:05:28.397Z,25.46
2022-08-26T01:07:57.136Z,25.49
2022-08-26T01:10:26.012Z,25.54
2022-08-26T01:12:55.677Z,25.50
2022-08-26T01:15:24.820Z,25.40
2022-08-26T01:17:51.421Z,25.40
2022-08-26T01:20:38.097Z,25.33
2022-08-26T01:23:06.942Z,25.33
2022-08-26T01:25:37.800Z,25.38
2022-08-26T01:28:07.940Z,25.37
2022-08-26T01:30:35.461Z,25.42
2022-08-26T01:33:03.853Z,25.42
2022-08-26T01:35:30.754Z,25.44
2022-08-26T01:37:57.577Z,25.38
2022-08-26T01:40:26.382Z,25.40
2022-08-26T01:42:54.224Z,25.31
2022-08-26T01:45:25.816Z,25.24
2022-08-26T01:47:56.925Z,25.14
2022-08-26T01:50:34.966Z,25.12
2022-08-26T01:53:07.509Z,25.17
2022-08-26T01:55:37.034Z,25.12
2022-08-26T01:58:05.618Z,25.08
2022-08-26T02:00:33.650Z,24.97
2022-08-26T02:03:18.494Z,24.90
2022-08-26T02:05:46.576Z,24.90
2022-08-26T02:08:20.603Z,24.84
2022-08-26T02:10:51.836Z,24.76
2022-08-26T02:13:21.678Z,24.76
2022-08-26T02:15:49.447Z,24.84
2022-08-26T02:18:16.174Z,24.77
2022-08-26T02:20:43.088Z,24.77
2022-08-26T02:23:09.970Z,24.85
2022-08-26T02:25:55.534Z,24.94
2022-08-26T02:28:22.210Z,24.90
2022-08-26T02:30:55.505Z,24.97
2022-08-26T02:33:22.266Z,25.03
2022-08-26T02:35:48.904Z,24.98
2022-08-26T02:38:15.455Z,25.08
2022-08-26T02:40:43.927Z,25.19
2022-08-26T02:43:12.616Z,25.17
2022-08-26T02:45:40.346Z,25.20
2022-08-26T02:48:10.294Z,25.20
2022-08-26T02:50:37.317Z,25.11
2022-08-26T02:53:04.691Z,25.05
2022-08-26T02:55:32.629Z,25.04
2022-08-26T02:58:00.157Z,25.05
2022-08-26T03:00:27.610Z,25.10
2022-08-26T03:02:54.596Z,24.96
2022-08-26T03:05:22.309Z,24.99
2022-08-26T03:07:50.788Z,24.99
2022-08-26T03:10:17.531Z,24.95
2022-08-26T03:12:47.360Z,24.93
2022-08-26T03:15:17.784Z,24.98
2022-08-26T03:17:46.538Z,24.91
2022-08-26T03:20:13.653Z,24.94
2022-08-26T03:22:42.230Z,24.97
2022-08-26T03:25:09.677Z,24.94
2022-08-26T03:27:36.384Z,24.99
2022-08-26T03:30:35.987Z,24.98
2022-08-26T03:33:03.406Z,25.02
2022-08-26T03:35:31.022Z,24.98
2022-08-26T03:37:57.621Z,24.96
2022-08-26T03:40:24.624Z,24.98
2022-08-26T03:42:55.675Z,24.99
2022-08-26T03:45:22.345Z,25.00
2022-08-26T03:47:48.903Z,24.94
2022-08-26T03:50:17.559Z,24.97
2022-08-26T03:52:49.940Z,24.97
2022-08-26T03:55:17.546Z,24.95
2022-08-26T03:57:44.354Z,24.93
2022-08-26T04:00:14.928Z,24.97
2022-08-26T04:02:46.208Z,24.97
2022-08-26T04:05:13.777Z,24.99
2022-08-26T04:07:41.159Z,24.91
2022-08-26T04:10:08.490Z,24.98
2022-08-26T04:12:37.512Z,25.04
2022-08-26T04:15:08.252Z,25.00
2022-08-26T04:17:34.911Z,24.97
2022-08-26T04:20:02.186Z,24.97
2022-08-26T04:22:29.383Z,24.99
2022-08-26T04:24:56.041Z,24.94
2022-08-26T04:27:22.716Z,24.94
2022-08-26T04:29:52.444Z,24.90
2022-08-26T04:32:21.668Z,24.91
2022-08-26T04:34:48.224Z,24.88
2022-08-26T04:37:15.699Z,24.86
2022-08-26T04:39:42.312Z,24.88
2022-08-26T04:42:11.048Z,24.82
2022-08-26T04:44:37.905Z,24.80
2022-08-26T04:47:06.137Z,24.79
2022-08-26T04:49:35.184Z,24.79
2022-08-26T04:52:02.554Z,24.77
2022-08-26T04:54:29.137Z,24.82
2022-08-26T04:56:56.068Z,24.80
2022-08-26T04:59:22.824Z,24.81
2022-08-26T05:01:52.391Z,24.84
2022-08-26T05:04:19.759Z,24.87
2022-08-26T05:06:47.195Z,24.80
2022-08-26T05:09:15.272Z,24.81
2022-08-26T05:11:42.012Z,24.88
2022-08-26T05:14:08.661Z,24.83
2022-08-26T05:16:35.289Z,24.71
2022-08-26T05:19:03.634Z,24.71
2022-08-26T05:21:30.252Z,24.67
2022-08-26T05:23:57.225Z,24.66
2022-08-26T05:26:24.821Z,24.71
2022-08-26T05:28:54.935Z,24.62
2022-08-26T05:31:31.638Z,24.64
2022-08-26T05:33:59.010Z,24.69
2022-08-26T05:36:27.411Z,24.65
2022-08-26T05:38:55.280Z,24.61
2022-08-26T05:41:25.024Z,24.62
2022-08-26T05:43:53.174Z,24.60
2022-08-26T05:46:20.261Z,24.62
2022-08-26T05:48:47.374Z,24.55
2022-08-26T05:51:14.449Z,24.46
2022-08-26T05:53:43.771Z,24.45
2022-08-26T05:56:24.889Z,24.42
2022-08-26T05:58:51.996Z,24.44
2022-08-26T06:01:20.437Z,24.45
2022-08-26T06:03:50.095Z,24.51
2022-08-26T06:06:35.911Z,24.55
2022-08-26T06:09:04.498Z,24.52
2022-08-26T06:11:32.651Z,24.62
2022-08-26T06:14:03.964Z,24.65
2022-08-26T06:16:31.478Z,24.76
2022-08-26T06:18:58.050Z,24.80
2022-08-26T06:21:26.831Z,24.84
2022-08-26T06:24:13.957Z,24.94
2022-08-26T06:26:40.898Z,25.08
2022-08-26T06:29:09.913Z,25.15
2022-08-26T06:31:36.729Z,25.16
2022-08-26T06:34:09.895Z,25.09
2022-08-26T06:36:38.028Z,25.27
2022-08-26T06:39:06.874Z,25.24
2022-08-26T06:41:34.587Z,25.28
2022-08-26T06:44:01.617Z,25.28
2022-08-26T06:46:29.698Z,25.47
2022-08-26T06:48:58.353Z,25.43
2022-08-26T06:51:26.726Z,25.44
2022-08-26T06:53:54.731Z,25.42
2022-08-26T06:56:25.430Z,25.49
2022-08-26T06:58:52.512Z,25.59
2022-08-26T07:01:24.453Z,25.53
2022-08-26T07:03:51.810Z,25.45
2022-08-26T07:06:21.234Z,25.32
2022-08-26T07:08:48.273Z,25.38
2022-08-26T07:11:15.103Z,25.35
2022-08-26T07:13:42.302Z,25.31
2022-08-26T07:16:14.457Z,25.40
2022-08-26T07:18:42.249Z,25.59
2022-08-26T07:21:13.584Z,25.53
2022-08-26T07:23:41.388Z,25.53
2022-08-26T07:26:10.408Z,25.60
2022-08-26T07:28:37.941Z,25.59
2022-08-26T07:31:05.951Z,25.63
2022-08-26T07:33:36.818Z,25.70
2022-08-26T07:36:04.281Z,25.80
2022-08-26T07:38:30.905Z,25.79
2022-08-26T07:41:01.919Z,25.88
2022-08-26T07:43:29.273Z,25.91
2022-08-26T07:45:56.041Z,25.94
2022-08-26T07:48:22.615Z,25.97
2022-08-26T07:50:50.515Z,26.08
2022-08-26T07:53:18.223Z,26.09
2022-08-26T07:55:46.306Z,26.16
2022-08-26T07:58:12.933Z,26.21
2022-08-26T08:00:39.586Z,26.23
2022-08-26T08:03:06.494Z,26.26
2022-08-26T08:05:33.917Z,26.34
2022-08-26T08:08:26.293Z,26.32
2022-08-26T08:10:48.921Z,26.43
2022-08-26T08:13:15.801Z,26.46
2022-08-26T08:15:42.547Z,26.44
2022-08-26T08:18:15.391Z,26.44
2022-08-26T08:20:47.662Z,26.45
2022-08-26T08:23:26.062Z,26.52
2022-08-26T08:26:00.715Z,26.55
2022-08-26T08:28:27.371Z,26.61
2022-08-26T08:30:54.117Z,26.57
2022-08-26T08:33:21.089Z,26.63
2022-08-26T08:35:48.562Z,26.57
2022-08-26T08:38:15.484Z,26.71
2022-08-26T08:40:44.448Z,26.68
2022-08-26T08:43:13.803Z,26.68
2022-08-26T08:45:44.777Z,26.73
2022-08-26T08:48:20.806Z,26.82
2022-08-26T08:50:55.109Z,26.87
2022-08-26T08:53:24.592Z,26.85
2022-08-26T08:56:07.064Z,26.85
2022-08-26T08:58:53.882Z,26.86
2022-08-26T09:01:39.634Z,26.98
2022-08-26T09:04:26.516Z,26.95
2022-08-26T09:06:55.485Z,26.94
2022-08-26T09:09:40.456Z,26.98
2022-08-26T09:12:11.358Z,27.02
2022-08-26T09:14:38.603Z,27.03
2022-08-26T09:17:06.293Z,27.06
2022-08-26T09:19:40.458Z,27.11
2022-08-26T09:22:09.399Z,27.12
2022-08-26T09:24:41.796Z,27.14
2022-08-26T09:27:34.670Z,27.18
2022-08-26T09:30:04.884Z,27.22
2022-08-26T09:32:32.256Z,27.28
2022-08-26T09:35:01.015Z,27.24
2022-08-26T09:37:42.212Z,27.32
2022-08-26T09:40:17.989Z,27.33
2022-08-26T09:42:44.776Z,27.50
2022-08-26T09:45:13.554Z,27.57
2022-08-26T09:47:52.600Z,27.50
2022-08-26T09:50:29.139Z,27.59
2022-08-26T09:53:14.639Z,27.84
2022-08-26T09:55:42.494Z,28.05
2022-08-26T09:58:13.660Z,27.75
2022-08-26T10:00:52.997Z,27.59
2022-08-26T10:03:28.070Z,27.67
2022-08-26T10:05:58.581Z,27.95
2022-08-26T10:08:37.759Z,27.72
2022-08-26T10:11:11.638Z,27.74
2022-08-26T10:13:42.370Z,27.64
2022-08-26T10:16:17.921Z,28.01
2022-08-26T10:19:00.981Z,27.74
2022-08-26T10:21:32.972Z,27.78
2022-08-26T10:24:02.111Z,27.67
2022-08-26T10:26:48.699Z,27.87
2022-08-26T10:29:23.344Z,27.81
2022-08-26T10:32:03.656Z,27.70
2022-08-26T10:34:31.825Z,27.67
2022-08-26T10:37:15.927Z,27.77
2022-08-26T10:39:58.623Z,28.04
2022-08-26T10:42:44.545Z,27.90
2022-08-26T10:45:15.451Z,27.89
2022-08-26T10:47:42.228Z,28.30
2022-08-26T10:50:09.097Z,27.96
2022-08-26T10:52:42.621Z,27.96
2022-08-26T10:55:18.128Z,27.99
2022-08-26T10:57:57.576Z,27.95
2022-08-26T11:00:56.040Z,28.21
2022-08-26T11:03:23.151Z,28.07
2022-08-26T11:06:25.166Z,28.80
2022-08-26T11:08:53.239Z,28.34
2022-08-26T11:11:38.360Z,28.46
2022-08-26T11:14:09.808Z,28.59
2022-08-26T11:16:43.292Z,28.43
2022-08-26T11:19:12.557Z,28.84
2022-08-26T11:21:44.534Z,28.60
2022-08-26T11:24:31.956Z,28.51
2022-08-26T11:26:58.559Z,28.46
2022-08-26T11:29:51.767Z,28.46
2022-08-26T11:32:34.559Z,28.71
2022-08-26T11:35:04.927Z,28.68
2022-08-26T11:37:36.079Z,28.60
2022-08-26T11:40:09.202Z,28.60
2022-08-26T11:42:49.267Z,28.86
2022-08-26T11:45:15.905Z,28.81
2022-08-26T11:47:42.705Z,28.67
2022-08-26T11:50:23.656Z,28.88
2022-08-26T11:52:51.541Z,28.70
2022-08-26T11:55:23.216Z,28.75
2022-08-26T11:57:53.260Z,28.90
2022-08-26T12:00:24.900Z,28.92
2022-08-26T12:02:52.489Z,28.68
2022-08-26T12:05:36.715Z,28.81
2022-08-26T12:08:08.996Z,29.27
2022-08-26T12:10:42.313Z,29.17
2022-08-26T12:13:29.666Z,28.93
2022-08-26T12:15:58.926Z,28.78
2022-08-26T12:18:36.106Z,28.79
2022-08-26T12:21:13.187Z,28.88
2022-08-26T12:23:43.404Z,29.03
2022-08-26T12:26:22.599Z,28.87
2022-08-26T12:28:53.110Z,28.94
2022-08-26T12:31:36.882Z,29.32
2022-08-26T12:34:05.670Z,29.08
2022-08-26T12:36:39.041Z,29.07
2022-08-26T12:39:29.200Z,29.04
2022-08-26T12:41:57.018Z,29.17
2022-08-26T12:44:33.589Z,29.39
2022-08-26T12:47:05.407Z,28.94
2022-08-26T12:49:32.332Z,28.87
2022-08-26T12:51:59.055Z,29.02
2022-08-26T12:54:45.917Z,28.97
2022-08-26T12:57:12.805Z,29.09
2022-08-26T12:59:39.526Z,29.19
2022-08-26T13:02:09.332Z,29.18
2022-08-26T13:04:41.187Z,29.09
2022-08-26T13:07:22.323Z,29.11
2022-08-26T13:09:58.879Z,29.03
2022-08-26T13:12:25.496Z,29.14
2022-08-26T13:14:52.113Z,29.45
2022-08-26T13:17:31.134Z,28.99
2022-08-26T13:20:04.098Z,29.25
2022-08-26T13:22:34.420Z,29.05
2022-08-26T13:25:04.386Z,29.42
2022-08-26T13:27:33.813Z,29.47
2022-08-26T13:30:09.593Z,30.03
2022-08-26T13:32:42.742Z,30.31
2022-08-26T13:35:13.092Z,30.45
2022-08-26T13:37:39.713Z,30.34
2022-08-26T13:40:17.695Z,30.30
2022-08-26T13:42:50.394Z,30.43
2022-08-26T13:45:20.179Z,30.38
2022-08-26T13:47:46.906Z,30.22
2022-08-26T13:50:19.233Z,30.27
2022-08-26T13:52:46.433Z,30.44
2022-08-26T13:55:15.790Z,30.33
2022-08-26T13:57:45.582Z,30.33
2022-08-26T14:00:12.532Z,30.37
2022-08-26T14:02:39.292Z,30.27
2022-08-26T14:05:06.335Z,30.25
2022-08-26T14:07:39.306Z,30.21
2022-08-26T14:10:09.243Z,30.24
2022-08-26T14:12:50.798Z,30.21
2022-08-26T14:15:18.977Z,30.13
2022-08-26T14:18:12.286Z,30.07
2022-08-26T14:20:51.574Z,30.20
2022-08-26T14:23:19.450Z,30.33
2022-08-26T14:25:48.777Z,30.43
2022-08-26T14:28:30.357Z,30.42
2022-08-26T14:31:00.690Z,30.38
2022-08-26T14:33:34.665Z,30.28
2022-08-26T14:36:26.493Z,30.15
2022-08-26T14:39:28.251Z,30.41
2022-08-26T14:42:01.230Z,30.25
2022-08-26T14:44:29.760Z,30.07
2022-08-26T14:46:56.482Z,30.07
2022-08-26T14:49:23.550Z,29.90
2022-08-26T14:51:59.470Z,30.27
2022-08-26T14:54:41.216Z,30.33
2022-08-26T14:57:14.584Z,30.42
2022-08-26T14:59:50.051Z,30.25
2022-08-26T15:02:32.544Z,30.15
2022-08-26T15:05:00.404Z,30.31
2022-08-26T15:07:32.888Z,30.08
2022-08-26T15:09:59.494Z,30.05
2022-08-26T15:12:26.247Z,29.99
2022-08-26T15:14:58.874Z,30.06
2022-08-26T15:17:26.387Z,29.98
2022-08-26T15:19:55.821Z,30.07
2022-08-26T15:22:37.695Z,29.98
2022-08-26T15:25:13.188Z,29.87
2022-08-26T15:27:45.992Z,29.85
2022-08-26T15:30:28.256Z,29.67
2022-08-26T15:32:54.963Z,29.79
2022-08-26T15:35:21.582Z,29.69
2022-08-26T15:40:22.217Z,29.46
2022-08-26T15:42:54.345Z,29.46
2022-08-26T15:45:26.925Z,29.29
2022-08-26T15:48:01.255Z,29.40
2022-08-26T15:50:45.174Z,29.44
2022-08-26T15:53:37.173Z,29.39
2022-08-26T15:56:24.845Z,29.15
2022-08-26T15:59:04.657Z,29.22
2022-08-26T16:04:32.188Z,29.24
2022-08-26T16:07:01.919Z,29.17
2022-08-26T16:09:30.966Z,29.16
2022-08-26T16:11:57.828Z,29.17
2022-08-26T16:14:40.151Z,29.16
2022-08-26T16:17:23.600Z,29.22
2022-08-26T16:20:01.370Z,29.18
2022-08-26T16:22:46.072Z,29.09
2022-08-26T16:25:21.489Z,29.04
2022-08-26T16:27:48.322Z,29.14
2022-08-26T16:30:25.093Z,29.00
2022-08-26T16:32:58.205Z,29.09
2022-08-26T16:35:28.104Z,28.87
2022-08-26T16:38:02.639Z,28.94
2022-08-26T16:40:29.488Z,28.86
2022-08-26T16:42:56.323Z,28.84
2022-08-26T16:45:23.597Z,28.70
2022-08-26T16:48:05.388Z,28.70
2022-08-26T16:50:32.238Z,28.66
2022-08-26T16:52:59.177Z,28.62
2022-08-26T16:55:31.818Z,28.59
2022-08-26T16:57:58.456Z,28.55
2022-08-26T17:00:29.146Z,28.60
2022-08-26T17:02:59.754Z,28.60
2022-08-26T17:05:26.660Z,28.59
2022-08-26T17:07:54.158Z,28.55
2022-08-26T17:10:21.632Z,28.50
2022-08-26T17:12:54.302Z,28.44
2022-08-26T17:15:32.663Z,28.47
2022-08-26T17:17:59.341Z,28.43
2022-08-26T17:20:26.558Z,28.40
2022-08-26T17:22:57.165Z,28.32
2022-08-26T17:25:31.756Z,28.32
2022-08-26T17:28:01.650Z,28.31
2022-08-26T17:30:33.973Z,28.27
2022-08-26T17:33:11.056Z,28.22
2022-08-26T17:35:43.447Z,28.24
2022-08-26T17:38:10.177Z,28.25
2022-08-26T17:40:39.754Z,28.23
2022-08-26T17:43:12.327Z,28.27
2022-08-26T17:45:43.446Z,28.30
2022-08-26T17:48:11.279Z,28.31
2022-08-26T17:50:43.577Z,28.28
2022-08-26T17:53:19.360Z,28.27
2022-08-26T17:55:46.825Z,28.27
2022-08-26T17:58:14.772Z,28.22
2022-08-26T18:00:46.447Z,28.13
2022-08-26T18:03:18.534Z,28.06
2022-08-26T18:05:49.395Z,27.92
2022-08-26T18:08:27.767Z,28.09
2022-08-26T18:10:54.380Z,28.02
2022-08-26T18:13:28.062Z,28.14
2022-08-26T18:15:57.523Z,28.06
2022-08-26T18:18:24.151Z,27.99
2022-08-26T18:21:01.720Z,28.07
2022-08-26T18:23:28.656Z,28.11
2022-08-26T18:26:04.076Z,28.13
2022-08-26T18:28:30.660Z,28.10
2022-08-26T18:30:58.966Z,28.02
2022-08-26T18:33:27.657Z,28.06
2022-08-26T18:35:57.139Z,28.06
2022-08-26T18:38:29.904Z,28.03
2022-08-26T18:41:04.048Z,28.03
2022-08-26T18:43:33.455Z,28.03
2022-08-26T18:46:06.915Z,28.04
2022-08-26T18:48:40.228Z,28.02
2022-08-26T18:51:07.146Z,28.07
2022-08-26T18:53:39.165Z,28.07
2022-08-26T18:56:08.744Z,27.98
2022-08-26T18:58:38.023Z,28.07
2022-08-26T19:01:04.763Z,28.08
2022-08-26T19:03:31.418Z,28.08
2022-08-26T19:05:58.130Z,28.13
2022-08-26T19:08:24.750Z,28.08
2022-08-26T19:10:52.198Z,28.13
2022-08-26T19:13:19.866Z,28.02
2022-08-26T19:15:47.781Z,27.97
2022-08-26T19:18:27.530Z,28.00
2022-08-26T19:21:11.915Z,27.98
2022-08-26T19:23:50.598Z,28.04
2022-08-26T19:26:17.664Z,28.08
2022-08-26T19:28:53.737Z,28.00
2022-08-26T19:34:06.720Z,27.96
2022-08-26T19:36:33.894Z,27.98
2022-08-26T19:39:03.193Z,27.98
2022-08-26T19:41:41.552Z,27.99
2022-08-26T19:44:38.156Z,28.04
2022-08-26T19:47:22.721Z,28.04
2022-08-26T19:50:11.313Z,28.05
2022-08-26T19:52:52.041Z,28.06
2022-08-26T19:55:58.209Z,28.04
2022-08-26T19:58:48.403Z,28.05
2022-08-26T20:01:15.514Z,28.03
2022-08-26T20:03:48.523Z,28.03
2022-08-26T20:06:16.348Z,28.02
2022-08-26T20:08:52.133Z,28.00
2022-08-26T20:11:23.361Z,28.02
2022-08-26T20:14:13.197Z,28.02
2022-08-26T20:16:45.613Z,28.02
2022-08-26T20:19:32.493Z,28.04
2022-08-26T20:22:02.171Z,28.05
2022-08-26T20:24:29.737Z,28.04
2022-08-26T20:26:56.372Z,28.03
2022-08-26T20:29:23.015Z,28.03
2022-08-26T20:31:49.736Z,27.98
2022-08-26T20:34:19.779Z,28.02
2022-08-26T20:36:47.315Z,28.04
2022-08-26T20:39:31.692Z,28.06
2022-08-26T20:41:58.364Z,28.05
2022-08-26T20:44:28.117Z,28.05
2022-08-26T20:46:55.392Z,28.02
2022-08-26T20:49:22.323Z,28.05
2022-08-26T20:51:51.961Z,28.00
2022-08-26T20:54:28.272Z,27.92
2022-08-26T20:56:58.684Z,27.91
2022-08-26T20:59:28.332Z,27.85
2022-08-26T21:02:13.556Z,27.88
2022-08-26T21:04:42.526Z,27.80
2022-08-26T21:07:09.131Z,27.76
2022-08-26T21:09:38.524Z,27.76
2022-08-26T21:12:10.926Z,27.77
2022-08-26T21:14:45.667Z,27.75
2022-08-26T21:17:24.510Z,27.79
2022-08-26T21:20:12.469Z,27.76
2022-08-26T21:22:47.954Z,27.75
2022-08-26T21:25:14.564Z,27.76
2022-08-26T21:27:41.186Z,27.84
2022-08-26T21:30:14.332Z,27.88
2022-08-26T21:32:43.955Z,27.85
2022-08-26T21:35:28.163Z,27.84
2022-08-26T21:37:57.877Z,27.88
2022-08-26T21:40:24.491Z,27.89
2022-08-26T21:42:59.853Z,27.90
2022-08-26T21:45:29.214Z,27.85
2022-08-26T21:48:04.613Z,27.80
2022-08-26T21:50:31.311Z,27.79
2022-08-26T21:52:57.910Z,27.74
2022-08-26T21:55:24.554Z,27.76
2022-08-26T21:57:56.707Z,27.72
2022-08-26T22:00:26.460Z,27.75
2022-08-26T22:03:03.847Z,27.73
2022-08-26T22:05:30.483Z,27.66
2022-08-26T22:07:59.696Z,27.63
2022-08-26T22:10:35.255Z,27.57
2022-08-26T22:13:04.750Z,27.62
2022-08-26T22:15:35.594Z,27.65
2022-08-26T22:18:09.117Z,27.64
2022-08-26T22:20:39.128Z,27.69
2022-08-26T22:23:11.873Z,27.63
2022-08-26T22:25:39.074Z,27.66
2022-08-26T22:28:25.282Z,27.56
2022-08-26T22:31:00.643Z,27.55
2022-08-26T22:33:36.315Z,27.58
2022-08-26T22:36:06.135Z,27.48
2022-08-26T22:38:35.741Z,27.51
2022-08-26T22:41:06.576Z,27.41
2022-08-26T22:43:43.832Z,27.39
2022-08-26T22:46:26.406Z,27.29
2022-08-26T22:49:01.656Z,27.32
2022-08-26T22:51:31.942Z,27.27
2022-08-26T22:54:26.056Z,27.22
2022-08-26T22:56:54.959Z,27.18
2022-08-26T22:59:21.615Z,27.20
2022-08-26T23:02:08.675Z,27.17
2022-08-26T23:04:44.692Z,27.21
2022-08-26T23:07:11.328Z,27.20
2022-08-26T23:09:50.002Z,27.15
2022-08-26T23:12:16.643Z,27.13
2022-08-26T23:14:44.087Z,27.15
2022-08-26T23:17:11.804Z,27.15
2022-08-26T23:19:40.915Z,27.21
2022-08-26T23:22:07.642Z,27.26
2022-08-26T23:24:40.318Z,27.14
2022-08-26T23:27:06.915Z,27.18
2022-08-26T23:29:43.904Z,27.20
2022-08-26T23:32:19.818Z,27.16
2022-08-26T23:35:03.281Z,27.10
2022-08-26T23:37:35.855Z,27.15
2022-08-26T23:40:25.074Z,27.15
2022-08-26T23:42:52.658Z,27.09
2022-08-26T23:45:34.355Z,27.06
2022-08-26T23:48:07.031Z,27.12
2022-08-26T23:50:58.416Z,27.14
2022-08-26T23:53:24.998Z,27.07
2022-08-26T23:55:52.374Z,27.06
